sensor_id;sensor_type;location;lat;lon;timestamp;temperature;humidity
23744;DHT22;12052;53.478;10.182;2022-10-16T00:00:40;13.80;99.90
23744;DHT22;12052;53.478;10.182;2022-10-16T00:03:06;13.70;99.90
23744;DHT22;12052;53.478;10.182;2022-10-16T00:05:32;13.70;99.90
23744;DHT22;12052;53.478;10.182;2022-10-16T00:07:58;13.70;99.90
23744;DHT22;12052;53.478;10.182;2022-10-16T00:10:23;13.70;99.90
23744;DHT22;12052;53.478;10.182;2022-10-16T00:12:49;13.60;99.90
23744;DHT22;12052;53.478;10.182;2022-10-16T00:15:15;13.60;99.90
23744;DHT22;12052;53.478;10.182;2022-10-16T00:17:41;13.60;99.90
23744;DHT22;12052;53.478;10.182;2022-10-16T00:20:07;13.60;99.90
23744;DHT22;12052;53.478;10.182;2022-10-16T00:22:32;13.50;99.90
23744;DHT22;12052;53.478;10.182;2022-10-16T00:24:58;13.50;99.90
23744;DHT22;12052;53.478;10.182;2022-10-16T00:27:24;13.50;99.90
23744;DHT22;12052;53.478;10.182;2022-10-16T00:29:52;13.50;99.90
23744;DHT22;12052;53.478;10.182;2022-10-16T00:32:19;13.50;99.90
23744;DHT22;12052;53.478;10.182;2022-10-16T00:34:45;13.40;99.90
23744;DHT22;12052;53.478;10.182;2022-10-16T00:37:11;13.40;99.90
23744;DHT22;12052;53.478;10.182;2022-10-16T00:39:37;13.40;99.90
23744;DHT22;12052;53.478;10.182;2022-10-16T00:42:02;13.40;99.90
23744;DHT22;12052;53.478;10.182;2022-10-16T00:47:34;13.40;99.90
23744;DHT22;12052;53.478;10.182;2022-10-16T00:50:17;13.30;99.90
23744;DHT22;12052;53.478;10.182;2022-10-16T00:52:48;13.30;99.90
23744;DHT22;12052;53.478;10.182;2022-10-16T00:55:15;13.30;99.90
23744;DHT22;12052;53.478;10.182;2022-10-16T00:57:41;13.30;99.90
23744;DHT22;12052;53.478;10.182;2022-10-16T01:00:09;13.20;99.90
23744;DHT22;12052;53.478;10.182;2022-10-16T01:02:36;13.20;99.90
23744;DHT22;12052;53.478;10.182;2022-10-16T01:05:02;13.20;99.90
23744;DHT22;12052;53.478;10.182;2022-10-16T01:08:07;13.20;99.90
23744;DHT22;12052;53.478;10.182;2022-10-16T01:10:57;13.20;99.90
23744;DHT22;12052;53.478;10.182;2022-10-16T01:13:34;13.10;99.90
23744;DHT22;12052;53.478;10.182;2022-10-16T01:16:12;13.10;99.90
23744;DHT22;12052;53.478;10.182;2022-10-16T01:18:43;13.10;99.90
23744;DHT22;12052;53.478;10.182;2022-10-16T01:21:16;13.10;99.90
23744;DHT22;12052;53.478;10.182;2022-10-16T01:28:51;13.10;99.90
23744;DHT22;12052;53.478;10.182;2022-10-16T01:31:20;13.10;99.90
23744;DHT22;12052;53.478;10.182;2022-10-16T01:33:56;13.10;99.90
23744;DHT22;12052;53.478;10.182;2022-10-16T01:36:34;13.10;99.90
23744;DHT22;12052;53.478;10.182;2022-10-16T01:39:01;13.10;99.90
23744;DHT22;12052;53.478;10.182;2022-10-16T01:41:34;13.10;99.90
23744;DHT22;12052;53.478;10.182;2022-10-16T01:44:08;13.10;99.90
23744;DHT22;12052;53.478;10.182;2022-10-16T01:46:37;13.00;99.90
23744;DHT22;12052;53.478;10.182;2022-10-16T01:49:05;13.00;99.90
23744;DHT22;12052;53.478;10.182;2022-10-16T01:51:32;13.00;99.90
23744;DHT22;12052;53.478;10.182;2022-10-16T01:54:01;13.00;99.90
23744;DHT22;12052;53.478;10.182;2022-10-16T01:56:27;12.90;99.90
23744;DHT22;12052;53.478;10.182;2022-10-16T01:59:10;12.90;99.90
23744;DHT22;12052;53.478;10.182;2022-10-16T02:01:37;12.90;99.90
23744;DHT22;12052;53.478;10.182;2022-10-16T02:04:13;12.90;99.90
23744;DHT22;12052;53.478;10.182;2022-10-16T02:06:41;12.90;99.90
23744;DHT22;12052;53.478;10.182;2022-10-16T02:09:06;12.90;99.90
23744;DHT22;12052;53.478;10.182;2022-10-16T02:11:32;12.80;99.90
23744;DHT22;12052;53.478;10.182;2022-10-16T02:14:02;12.80;99.90
23744;DHT22;12052;53.478;10.182;2022-10-16T02:16:34;12.80;99.90
23744;DHT22;12052;53.478;10.182;2022-10-16T02:19:00;12.80;99.90
23744;DHT22;12052;53.478;10.182;2022-10-16T02:21:32;12.80;99.90
23744;DHT22;12052;53.478;10.182;2022-10-16T02:29:24;12.70;99.90
23744;DHT22;12052;53.478;10.182;2022-10-16T02:31:54;12.70;99.90
23744;DHT22;12052;53.478;10.182;2022-10-16T02:34:21;12.60;99.90
23744;DHT22;12052;53.478;10.182;2022-10-16T02:36:48;12.70;99.90
23744;DHT22;12052;53.478;10.182;2022-10-16T02:39:16;12.70;99.90
23744;DHT22;12052;53.478;10.182;2022-10-16T02:41:42;12.60;99.90
23744;DHT22;12052;53.478;10.182;2022-10-16T02:44:08;12.60;99.90
23744;DHT22;12052;53.478;10.182;2022-10-16T02:46:33;12.60;99.90
23744;DHT22;12052;53.478;10.182;2022-10-16T02:48:59;12.60;99.90
23744;DHT22;12052;53.478;10.182;2022-10-16T02:51:24;12.60;99.90
23744;DHT22;12052;53.478;10.182;2022-10-16T02:53:50;12.60;99.90
23744;DHT22;12052;53.478;10.182;2022-10-16T02:56:15;12.60;99.90
23744;DHT22;12052;53.478;10.182;2022-10-16T02:58:41;12.60;99.90
23744;DHT22;12052;53.478;10.182;2022-10-16T03:01:06;12.60;99.90
23744;DHT22;12052;53.478;10.182;2022-10-16T03:03:33;12.50;99.90
23744;DHT22;12052;53.478;10.182;2022-10-16T03:05:58;12.50;99.90
23744;DHT22;12052;53.478;10.182;2022-10-16T03:08:24;12.50;99.90
23744;DHT22;12052;53.478;10.182;2022-10-16T03:10:51;12.50;99.90
23744;DHT22;12052;53.478;10.182;2022-10-16T03:13:17;12.40;99.90
23744;DHT22;12052;53.478;10.182;2022-10-16T03:15:43;12.40;99.90
23744;DHT22;12052;53.478;10.182;2022-10-16T03:18:09;12.30;99.90
23744;DHT22;12052;53.478;10.182;2022-10-16T03:20:34;12.40;99.90
23744;DHT22;12052;53.478;10.182;2022-10-16T03:23:00;12.30;99.90
23744;DHT22;12052;53.478;10.182;2022-10-16T03:25:25;12.30;99.90
23744;DHT22;12052;53.478;10.182;2022-10-16T03:27:51;12.20;99.90
23744;DHT22;12052;53.478;10.182;2022-10-16T03:30:17;12.20;99.90
23744;DHT22;12052;53.478;10.182;2022-10-16T03:32:44;12.20;99.90
23744;DHT22;12052;53.478;10.182;2022-10-16T03:35:09;12.20;99.90
23744;DHT22;12052;53.478;10.182;2022-10-16T03:37:35;12.20;99.90
23744;DHT22;12052;53.478;10.182;2022-10-16T03:40:00;12.20;99.90
23744;DHT22;12052;53.478;10.182;2022-10-16T03:42:26;12.20;99.90
23744;DHT22;12052;53.478;10.182;2022-10-16T03:44:52;12.20;99.90
23744;DHT22;12052;53.478;10.182;2022-10-16T03:47:17;12.20;99.90
23744;DHT22;12052;53.478;10.182;2022-10-16T03:49:47;12.20;99.90
23744;DHT22;12052;53.478;10.182;2022-10-16T03:52:12;12.20;99.90
23744;DHT22;12052;53.478;10.182;2022-10-16T03:54:39;12.20;99.90
23744;DHT22;12052;53.478;10.182;2022-10-16T03:57:05;12.20;99.90
23744;DHT22;12052;53.478;10.182;2022-10-16T03:59:31;12.20;99.90
23744;DHT22;12052;53.478;10.182;2022-10-16T04:01:56;12.20;99.90
23744;DHT22;12052;53.478;10.182;2022-10-16T04:04:22;12.20;99.90
23744;DHT22;12052;53.478;10.182;2022-10-16T04:06:47;12.20;99.90
23744;DHT22;12052;53.478;10.182;2022-10-16T04:09:13;12.20;99.90
23744;DHT22;12052;53.478;10.182;2022-10-16T04:11:38;12.20;99.90
23744;DHT22;12052;53.478;10.182;2022-10-16T04:14:05;12.20;99.90
23744;DHT22;12052;53.478;10.182;2022-10-16T04:16:31;12.10;99.90
23744;DHT22;12052;53.478;10.182;2022-10-16T04:18:57;12.10;99.90
23744;DHT22;12052;53.478;10.182;2022-10-16T04:21:22;12.10;99.90
23744;DHT22;12052;53.478;10.182;2022-10-16T04:23:48;12.10;99.90
23744;DHT22;12052;53.478;10.182;2022-10-16T04:26:14;12.00;99.90
23744;DHT22;12052;53.478;10.182;2022-10-16T04:28:40;12.00;99.90
23744;DHT22;12052;53.478;10.182;2022-10-16T04:31:06;12.00;99.90
23744;DHT22;12052;53.478;10.182;2022-10-16T04:33:32;12.00;99.90
23744;DHT22;12052;53.478;10.182;2022-10-16T04:35:59;12.00;99.90
23744;DHT22;12052;53.478;10.182;2022-10-16T04:38:25;11.90;99.90
23744;DHT22;12052;53.478;10.182;2022-10-16T04:40:51;11.90;99.90
23744;DHT22;12052;53.478;10.182;2022-10-16T04:43:17;11.90;99.90
23744;DHT22;12052;53.478;10.182;2022-10-16T04:45:42;11.90;99.90
23744;DHT22;12052;53.478;10.182;2022-10-16T04:48:08;11.80;99.90
23744;DHT22;12052;53.478;10.182;2022-10-16T04:50:33;11.90;99.90
23744;DHT22;12052;53.478;10.182;2022-10-16T04:52:59;11.80;99.90
23744;DHT22;12052;53.478;10.182;2022-10-16T04:55:25;11.90;99.90
23744;DHT22;12052;53.478;10.182;2022-10-16T04:57:50;11.80;99.90
23744;DHT22;12052;53.478;10.182;2022-10-16T05:00:16;11.90;99.90
23744;DHT22;12052;53.478;10.182;2022-10-16T05:02:41;11.90;99.90
23744;DHT22;12052;53.478;10.182;2022-10-16T05:05:07;11.80;99.90
23744;DHT22;12052;53.478;10.182;2022-10-16T05:07:33;11.80;99.90
23744;DHT22;12052;53.478;10.182;2022-10-16T05:09:58;11.80;99.90
23744;DHT22;12052;53.478;10.182;2022-10-16T05:12:24;11.80;99.90
23744;DHT22;12052;53.478;10.182;2022-10-16T05:14:49;11.80;99.90
23744;DHT22;12052;53.478;10.182;2022-10-16T05:17:15;11.80;99.90
23744;DHT22;12052;53.478;10.182;2022-10-16T05:19:40;11.70;99.90
23744;DHT22;12052;53.478;10.182;2022-10-16T05:22:06;11.80;99.90
23744;DHT22;12052;53.478;10.182;2022-10-16T05:24:31;11.70;99.90
23744;DHT22;12052;53.478;10.182;2022-10-16T05:26:57;11.80;99.90
23744;DHT22;12052;53.478;10.182;2022-10-16T05:29:23;11.80;99.90
23744;DHT22;12052;53.478;10.182;2022-10-16T05:31:52;11.80;99.90
23744;DHT22;12052;53.478;10.182;2022-10-16T05:34:18;11.70;99.90
23744;DHT22;12052;53.478;10.182;2022-10-16T05:36:44;11.80;99.90
23744;DHT22;12052;53.478;10.182;2022-10-16T05:39:10;11.70;99.90
23744;DHT22;12052;53.478;10.182;2022-10-16T05:41:36;11.80;99.90
23744;DHT22;12052;53.478;10.182;2022-10-16T05:44:04;11.70;99.90
23744;DHT22;12052;53.478;10.182;2022-10-16T05:46:30;11.70;99.90
23744;DHT22;12052;53.478;10.182;2022-10-16T05:48:56;11.70;99.90
23744;DHT22;12052;53.478;10.182;2022-10-16T05:51:22;11.70;99.90
23744;DHT22;12052;53.478;10.182;2022-10-16T05:53:47;11.70;99.90
23744;DHT22;12052;53.478;10.182;2022-10-16T05:56:13;11.70;99.90
23744;DHT22;12052;53.478;10.182;2022-10-16T05:58:39;11.70;99.90
23744;DHT22;12052;53.478;10.182;2022-10-16T06:01:24;11.70;99.90
23744;DHT22;12052;53.478;10.182;2022-10-16T06:03:51;11.70;99.90
23744;DHT22;12052;53.478;10.182;2022-10-16T06:06:22;11.70;99.90
23744;DHT22;12052;53.478;10.182;2022-10-16T06:08:48;11.70;99.90
23744;DHT22;12052;53.478;10.182;2022-10-16T06:11:16;11.70;99.90
23744;DHT22;12052;53.478;10.182;2022-10-16T06:13:43;11.70;99.90
23744;DHT22;12052;53.478;10.182;2022-10-16T06:16:11;11.70;99.90
23744;DHT22;12052;53.478;10.182;2022-10-16T06:18:38;11.80;99.90
23744;DHT22;12052;53.478;10.182;2022-10-16T06:21:11;11.80;99.90
23744;DHT22;12052;53.478;10.182;2022-10-16T06:23:37;11.80;99.90
23744;DHT22;12052;53.478;10.182;2022-10-16T06:26:10;11.80;99.90
23744;DHT22;12052;53.478;10.182;2022-10-16T06:28:37;11.80;99.90
23744;DHT22;12052;53.478;10.182;2022-10-16T06:31:05;11.80;99.90
23744;DHT22;12052;53.478;10.182;2022-10-16T06:33:31;11.80;99.90
23744;DHT22;12052;53.478;10.182;2022-10-16T06:36:11;11.80;99.90
23744;DHT22;12052;53.478;10.182;2022-10-16T06:38:38;11.80;99.90
23744;DHT22;12052;53.478;10.182;2022-10-16T06:41:04;11.80;99.90
23744;DHT22;12052;53.478;10.182;2022-10-16T06:43:30;11.90;99.90
23744;DHT22;12052;53.478;10.182;2022-10-16T06:46:01;11.90;99.90
23744;DHT22;12052;53.478;10.182;2022-10-16T06:48:28;11.90;99.90
23744;DHT22;12052;53.478;10.182;2022-10-16T06:51:02;11.90;99.90
23744;DHT22;12052;53.478;10.182;2022-10-16T06:53:30;11.90;99.90
23744;DHT22;12052;53.478;10.182;2022-10-16T06:55:56;12.00;99.90
23744;DHT22;12052;53.478;10.182;2022-10-16T06:58:22;11.90;99.90
23744;DHT22;12052;53.478;10.182;2022-10-16T07:00:48;12.00;99.90
23744;DHT22;12052;53.478;10.182;2022-10-16T07:03:14;12.10;99.90
23744;DHT22;12052;53.478;10.182;2022-10-16T07:05:43;12.10;99.90
23744;DHT22;12052;53.478;10.182;2022-10-16T07:08:09;12.20;99.90
23744;DHT22;12052;53.478;10.182;2022-10-16T07:10:35;12.30;99.90
23744;DHT22;12052;53.478;10.182;2022-10-16T07:13:01;12.30;99.90
23744;DHT22;12052;53.478;10.182;2022-10-16T07:15:26;12.40;99.90
23744;DHT22;12052;53.478;10.182;2022-10-16T07:17:52;12.50;99.90
23744;DHT22;12052;53.478;10.182;2022-10-16T07:20:19;12.60;99.90
23744;DHT22;12052;53.478;10.182;2022-10-16T07:22:44;12.80;99.90
23744;DHT22;12052;53.478;10.182;2022-10-16T07:25:10;12.90;99.90
23744;DHT22;12052;53.478;10.182;2022-10-16T07:27:37;13.10;99.90
23744;DHT22;12052;53.478;10.182;2022-10-16T07:30:03;13.20;99.90
23744;DHT22;12052;53.478;10.182;2022-10-16T07:32:28;13.30;99.90
23744;DHT22;12052;53.478;10.182;2022-10-16T07:34:54;13.40;99.90
23744;DHT22;12052;53.478;10.182;2022-10-16T07:37:21;13.60;99.90
23744;DHT22;12052;53.478;10.182;2022-10-16T07:39:46;13.80;99.90
23744;DHT22;12052;53.478;10.182;2022-10-16T07:42:12;14.00;99.90
23744;DHT22;12052;53.478;10.182;2022-10-16T07:44:38;14.10;99.90
23744;DHT22;12052;53.478;10.182;2022-10-16T07:47:03;14.30;99.90
23744;DHT22;12052;53.478;10.182;2022-10-16T07:49:29;14.40;99.90
23744;DHT22;12052;53.478;10.182;2022-10-16T07:51:54;14.70;99.90
23744;DHT22;12052;53.478;10.182;2022-10-16T07:54:20;14.70;99.90
23744;DHT22;12052;53.478;10.182;2022-10-16T07:56:45;14.70;99.90
23744;DHT22;12052;53.478;10.182;2022-10-16T07:59:11;14.70;99.90
23744;DHT22;12052;53.478;10.182;2022-10-16T08:01:36;14.90;99.90
23744;DHT22;12052;53.478;10.182;2022-10-16T08:04:02;15.00;99.90
23744;DHT22;12052;53.478;10.182;2022-10-16T08:06:28;15.20;99.90
23744;DHT22;12052;53.478;10.182;2022-10-16T08:08:55;15.40;99.90
23744;DHT22;12052;53.478;10.182;2022-10-16T08:11:20;15.40;99.90
23744;DHT22;12052;53.478;10.182;2022-10-16T08:13:46;15.50;99.90
23744;DHT22;12052;53.478;10.182;2022-10-16T08:16:12;15.40;99.90
23744;DHT22;12052;53.478;10.182;2022-10-16T08:18:38;15.50;99.90
23744;DHT22;12052;53.478;10.182;2022-10-16T08:21:05;15.40;99.90
23744;DHT22;12052;53.478;10.182;2022-10-16T08:23:32;15.30;99.90
23744;DHT22;12052;53.478;10.182;2022-10-16T08:26:03;15.20;99.90
23744;DHT22;12052;53.478;10.182;2022-10-16T08:28:29;15.20;99.90
23744;DHT22;12052;53.478;10.182;2022-10-16T08:30:55;15.20;99.90
23744;DHT22;12052;53.478;10.182;2022-10-16T08:33:22;15.20;99.90
23744;DHT22;12052;53.478;10.182;2022-10-16T08:35:52;15.20;99.90
23744;DHT22;12052;53.478;10.182;2022-10-16T08:38:18;15.20;99.90
23744;DHT22;12052;53.478;10.182;2022-10-16T08:40:44;15.40;99.90
23744;DHT22;12052;53.478;10.182;2022-10-16T08:43:41;15.50;99.90
23744;DHT22;12052;53.478;10.182;2022-10-16T08:48:49;16.00;99.90
23744;DHT22;12052;53.478;10.182;2022-10-16T08:51:29;16.20;99.90
23744;DHT22;12052;53.478;10.182;2022-10-16T08:54:20;16.40;99.90
23744;DHT22;12052;53.478;10.182;2022-10-16T08:56:46;16.70;99.90
23744;DHT22;12052;53.478;10.182;2022-10-16T08:59:20;16.90;99.90
23744;DHT22;12052;53.478;10.182;2022-10-16T09:01:48;17.00;99.90
23744;DHT22;12052;53.478;10.182;2022-10-16T09:04:56;17.20;99.90
23744;DHT22;12052;53.478;10.182;2022-10-16T09:07:52;17.30;99.90
23744;DHT22;12052;53.478;10.182;2022-10-16T09:10:44;17.40;99.90
23744;DHT22;12052;53.478;10.182;2022-10-16T09:15:51;17.50;99.90
23744;DHT22;12052;53.478;10.182;2022-10-16T09:18:24;17.70;99.90
23744;DHT22;12052;53.478;10.182;2022-10-16T09:23:36;18.10;99.90
23744;DHT22;12052;53.478;10.182;2022-10-16T09:26:02;18.20;99.90
23744;DHT22;12052;53.478;10.182;2022-10-16T09:28:28;18.30;99.90
23744;DHT22;12052;53.478;10.182;2022-10-16T09:30:53;18.40;99.90
23744;DHT22;12052;53.478;10.182;2022-10-16T09:33:23;18.40;99.90
23744;DHT22;12052;53.478;10.182;2022-10-16T09:35:51;18.40;99.90
23744;DHT22;12052;53.478;10.182;2022-10-16T09:38:30;18.30;99.90
23744;DHT22;12052;53.478;10.182;2022-10-16T09:40:57;18.30;99.90
23744;DHT22;12052;53.478;10.182;2022-10-16T09:43:27;18.40;99.90
23744;DHT22;12052;53.478;10.182;2022-10-16T09:46:21;18.30;99.90
23744;DHT22;12052;53.478;10.182;2022-10-16T09:48:51;18.40;99.90
23744;DHT22;12052;53.478;10.182;2022-10-16T09:51:32;18.20;99.90
23744;DHT22;12052;53.478;10.182;2022-10-16T09:56:35;18.40;99.90
23744;DHT22;12052;53.478;10.182;2022-10-16T09:59:14;18.40;99.90
23744;DHT22;12052;53.478;10.182;2022-10-16T10:01:46;18.20;99.90
23744;DHT22;12052;53.478;10.182;2022-10-16T10:04:12;18.20;99.90
23744;DHT22;12052;53.478;10.182;2022-10-16T10:06:50;18.20;99.90
23744;DHT22;12052;53.478;10.182;2022-10-16T10:09:37;18.30;99.90
23744;DHT22;12052;53.478;10.182;2022-10-16T10:12:05;18.30;99.90
23744;DHT22;12052;53.478;10.182;2022-10-16T10:14:39;18.40;99.90
23744;DHT22;12052;53.478;10.182;2022-10-16T10:19:48;18.50;99.90
23744;DHT22;12052;53.478;10.182;2022-10-16T10:25:12;18.50;99.90
23744;DHT22;12052;53.478;10.182;2022-10-16T10:28:03;18.50;99.90
23744;DHT22;12052;53.478;10.182;2022-10-16T10:30:40;18.50;99.90
23744;DHT22;12052;53.478;10.182;2022-10-16T10:36:30;18.40;99.90
23744;DHT22;12052;53.478;10.182;2022-10-16T10:39:24;18.40;99.90
23744;DHT22;12052;53.478;10.182;2022-10-16T11:03:32;18.50;99.90
23744;DHT22;12052;53.478;10.182;2022-10-16T11:06:10;18.30;99.90
23744;DHT22;12052;53.478;10.182;2022-10-16T11:08:48;18.40;99.90
23744;DHT22;12052;53.478;10.182;2022-10-16T11:11:23;18.40;99.90
23744;DHT22;12052;53.478;10.182;2022-10-16T11:13:59;18.30;99.90
23744;DHT22;12052;53.478;10.182;2022-10-16T11:16:35;18.40;99.90
23744;DHT22;12052;53.478;10.182;2022-10-16T11:19:13;18.30;99.90
23744;DHT22;12052;53.478;10.182;2022-10-16T11:21:47;18.40;99.90
23744;DHT22;12052;53.478;10.182;2022-10-16T11:24:22;18.40;99.90
23744;DHT22;12052;53.478;10.182;2022-10-16T11:26:49;18.60;99.90
23744;DHT22;12052;53.478;10.182;2022-10-16T11:29:23;18.40;99.90
23744;DHT22;12052;53.478;10.182;2022-10-16T11:31:53;18.50;99.90
23744;DHT22;12052;53.478;10.182;2022-10-16T11:34:44;18.50;99.90
23744;DHT22;12052;53.478;10.182;2022-10-16T11:37:19;18.70;99.90
23744;DHT22;12052;53.478;10.182;2022-10-16T11:39:45;18.90;99.90
23744;DHT22;12052;53.478;10.182;2022-10-16T11:42:36;19.00;99.90
23744;DHT22;12052;53.478;10.182;2022-10-16T11:50:56;19.10;99.90
23744;DHT22;12052;53.478;10.182;2022-10-16T11:56:00;18.90;99.90
23744;DHT22;12052;53.478;10.182;2022-10-16T11:58:39;18.70;99.90
23744;DHT22;12052;53.478;10.182;2022-10-16T12:06:25;18.50;99.90
23744;DHT22;12052;53.478;10.182;2022-10-16T12:08:55;18.40;99.90
23744;DHT22;12052;53.478;10.182;2022-10-16T12:14:03;18.20;99.90
23744;DHT22;12052;53.478;10.182;2022-10-16T12:16:29;18.30;99.90
23744;DHT22;12052;53.478;10.182;2022-10-16T12:19:15;18.30;99.90
23744;DHT22;12052;53.478;10.182;2022-10-16T12:21:42;18.30;99.90
23744;DHT22;12052;53.478;10.182;2022-10-16T12:26:55;18.30;99.90
23744;DHT22;12052;53.478;10.182;2022-10-16T12:31:52;18.30;99.90
23744;DHT22;12052;53.478;10.182;2022-10-16T12:36:54;18.20;99.90
23744;DHT22;12052;53.478;10.182;2022-10-16T12:39:23;18.20;99.90
23744;DHT22;12052;53.478;10.182;2022-10-16T12:42:01;18.40;99.90
23744;DHT22;12052;53.478;10.182;2022-10-16T12:44:33;18.40;99.90
23744;DHT22;12052;53.478;10.182;2022-10-16T12:47:00;18.50;99.90
23744;DHT22;12052;53.478;10.182;2022-10-16T12:49:37;18.50;99.90
23744;DHT22;12052;53.478;10.182;2022-10-16T12:52:25;18.60;99.90
23744;DHT22;12052;53.478;10.182;2022-10-16T12:54:56;18.80;99.90
23744;DHT22;12052;53.478;10.182;2022-10-16T12:57:41;18.80;99.90
23744;DHT22;12052;53.478;10.182;2022-10-16T13:00:35;19.00;99.90
23744;DHT22;12052;53.478;10.182;2022-10-16T13:17:11;19.10;99.90
23744;DHT22;12052;53.478;10.182;2022-10-16T13:20:17;19.00;99.90
23744;DHT22;12052;53.478;10.182;2022-10-16T13:28:27;18.80;99.90
23744;DHT22;12052;53.478;10.182;2022-10-16T13:30:56;18.80;99.90
23744;DHT22;12052;53.478;10.182;2022-10-16T13:35:56;18.70;99.90
23744;DHT22;12052;53.478;10.182;2022-10-16T13:38:25;18.80;99.90
23744;DHT22;12052;53.478;10.182;2022-10-16T13:40:57;18.90;99.90
23744;DHT22;12052;53.478;10.182;2022-10-16T13:46:06;18.90;99.90
23744;DHT22;12052;53.478;10.182;2022-10-16T13:48:33;18.90;99.90
23744;DHT22;12052;53.478;10.182;2022-10-16T13:53:31;18.90;99.90
23744;DHT22;12052;53.478;10.182;2022-10-16T13:55:57;19.00;99.90
23744;DHT22;12052;53.478;10.182;2022-10-16T13:58:22;18.90;99.90
23744;DHT22;12052;53.478;10.182;2022-10-16T14:01:23;19.00;99.90
23744;DHT22;12052;53.478;10.182;2022-10-16T14:03:50;18.90;99.90
23744;DHT22;12052;53.478;10.182;2022-10-16T14:06:20;18.80;99.90
23744;DHT22;12052;53.478;10.182;2022-10-16T14:11:29;18.70;99.90
23744;DHT22;12052;53.478;10.182;2022-10-16T14:13:55;18.70;99.90
23744;DHT22;12052;53.478;10.182;2022-10-16T14:16:27;18.60;99.90
23744;DHT22;12052;53.478;10.182;2022-10-16T14:19:01;18.50;99.90
23744;DHT22;12052;53.478;10.182;2022-10-16T14:21:28;18.50;99.90
23744;DHT22;12052;53.478;10.182;2022-10-16T14:23:54;18.40;99.90
23744;DHT22;12052;53.478;10.182;2022-10-16T14:26:23;18.40;99.90
23744;DHT22;12052;53.478;10.182;2022-10-16T14:29:00;18.40;99.90
23744;DHT22;12052;53.478;10.182;2022-10-16T14:31:31;18.30;99.90
23744;DHT22;12052;53.478;10.182;2022-10-16T14:33:57;18.20;99.90
23744;DHT22;12052;53.478;10.182;2022-10-16T14:36:22;18.10;99.90
23744;DHT22;12052;53.478;10.182;2022-10-16T14:39:02;18.10;99.90
23744;DHT22;12052;53.478;10.182;2022-10-16T14:41:30;18.00;99.90
23744;DHT22;12052;53.478;10.182;2022-10-16T14:44:01;18.00;99.90
23744;DHT22;12052;53.478;10.182;2022-10-16T14:46:31;18.00;99.90
23744;DHT22;12052;53.478;10.182;2022-10-16T14:49:18;18.00;99.90
23744;DHT22;12052;53.478;10.182;2022-10-16T14:51:47;18.00;99.90
23744;DHT22;12052;53.478;10.182;2022-10-16T14:54:15;17.90;99.90
23744;DHT22;12052;53.478;10.182;2022-10-16T14:56:57;17.90;99.90
23744;DHT22;12052;53.478;10.182;2022-10-16T14:59:40;17.80;99.90
23744;DHT22;12052;53.478;10.182;2022-10-16T15:04:48;17.80;99.90
23744;DHT22;12052;53.478;10.182;2022-10-16T15:07:13;17.70;99.90
23744;DHT22;12052;53.478;10.182;2022-10-16T15:09:39;17.70;99.90
23744;DHT22;12052;53.478;10.182;2022-10-16T15:12:04;17.60;99.90
23744;DHT22;12052;53.478;10.182;2022-10-16T15:14:30;17.50;99.90
23744;DHT22;12052;53.478;10.182;2022-10-16T15:16:56;17.50;99.90
23744;DHT22;12052;53.478;10.182;2022-10-16T15:19:21;17.40;99.90
23744;DHT22;12052;53.478;10.182;2022-10-16T15:21:47;17.40;99.90
23744;DHT22;12052;53.478;10.182;2022-10-16T15:24:13;17.30;99.90
23744;DHT22;12052;53.478;10.182;2022-10-16T15:26:39;17.30;99.90
23744;DHT22;12052;53.478;10.182;2022-10-16T15:29:05;17.30;99.90
23744;DHT22;12052;53.478;10.182;2022-10-16T15:31:31;17.20;99.90
23744;DHT22;12052;53.478;10.182;2022-10-16T15:33:57;17.20;99.90
23744;DHT22;12052;53.478;10.182;2022-10-16T15:36:34;17.20;99.90
23744;DHT22;12052;53.478;10.182;2022-10-16T15:39:05;17.20;99.90
23744;DHT22;12052;53.478;10.182;2022-10-16T15:41:31;17.10;99.90
23744;DHT22;12052;53.478;10.182;2022-10-16T15:43:57;17.10;99.90
23744;DHT22;12052;53.478;10.182;2022-10-16T15:46:23;17.00;99.90
23744;DHT22;12052;53.478;10.182;2022-10-16T15:48:50;16.90;99.90
23744;DHT22;12052;53.478;10.182;2022-10-16T15:51:18;16.90;99.90
23744;DHT22;12052;53.478;10.182;2022-10-16T15:53:43;16.80;99.90
23744;DHT22;12052;53.478;10.182;2022-10-16T15:56:12;16.70;99.90
23744;DHT22;12052;53.478;10.182;2022-10-16T15:58:37;16.60;99.90
23744;DHT22;12052;53.478;10.182;2022-10-16T16:01:03;16.50;99.90
23744;DHT22;12052;53.478;10.182;2022-10-16T16:03:30;16.40;99.90
23744;DHT22;12052;53.478;10.182;2022-10-16T16:05:56;16.40;99.90
23744;DHT22;12052;53.478;10.182;2022-10-16T16:08:21;16.30;99.90
23744;DHT22;12052;53.478;10.182;2022-10-16T16:11:01;16.20;99.90
23744;DHT22;12052;53.478;10.182;2022-10-16T16:13:27;16.10;99.90
23744;DHT22;12052;53.478;10.182;2022-10-16T16:15:53;16.00;99.90
23744;DHT22;12052;53.478;10.182;2022-10-16T16:18:18;15.90;99.90
23744;DHT22;12052;53.478;10.182;2022-10-16T16:20:44;15.80;99.90
23744;DHT22;12052;53.478;10.182;2022-10-16T16:23:09;15.80;99.90
23744;DHT22;12052;53.478;10.182;2022-10-16T16:25:35;15.70;99.90
23744;DHT22;12052;53.478;10.182;2022-10-16T16:28:01;15.70;99.90
23744;DHT22;12052;53.478;10.182;2022-10-16T16:30:27;15.60;99.90
23744;DHT22;12052;53.478;10.182;2022-10-16T16:32:52;15.50;99.90
23744;DHT22;12052;53.478;10.182;2022-10-16T16:35:18;15.50;99.90
23744;DHT22;12052;53.478;10.182;2022-10-16T16:37:43;15.40;99.90
23744;DHT22;12052;53.478;10.182;2022-10-16T16:40:09;15.40;99.90
23744;DHT22;12052;53.478;10.182;2022-10-16T16:42:34;15.30;99.90
23744;DHT22;12052;53.478;10.182;2022-10-16T16:45:00;15.30;99.90
23744;DHT22;12052;53.478;10.182;2022-10-16T16:47:25;15.20;99.90
23744;DHT22;12052;53.478;10.182;2022-10-16T16:49:51;15.20;99.90
23744;DHT22;12052;53.478;10.182;2022-10-16T16:52:17;15.10;99.90
23744;DHT22;12052;53.478;10.182;2022-10-16T16:54:42;15.00;99.90
23744;DHT22;12052;53.478;10.182;2022-10-16T16:57:10;15.00;99.90
23744;DHT22;12052;53.478;10.182;2022-10-16T16:59:35;14.90;99.90
23744;DHT22;12052;53.478;10.182;2022-10-16T17:02:02;14.80;99.90
23744;DHT22;12052;53.478;10.182;2022-10-16T17:04:28;14.70;99.90
23744;DHT22;12052;53.478;10.182;2022-10-16T17:06:54;14.70;99.90
23744;DHT22;12052;53.478;10.182;2022-10-16T17:09:20;14.70;99.90
23744;DHT22;12052;53.478;10.182;2022-10-16T17:11:46;14.60;99.90
23744;DHT22;12052;53.478;10.182;2022-10-16T17:14:14;14.60;99.90
23744;DHT22;12052;53.478;10.182;2022-10-16T17:16:40;14.60;99.90
23744;DHT22;12052;53.478;10.182;2022-10-16T17:19:12;14.60;99.90